Time;durP1;ratioP1;P1;durP2;ratioP2;P2;SDS_P1;SDS_P2;PMS_P1;PMS_P2;Temp;Humidity;BMP_temperature;BMP_pressure;BME280_temperature;BME280_humidity;BME280_pressure;Samples;Min_cycle;Max_cycle;Signal;HPM_P1;HPM_P2
2021/12/28 00:01:54;;;;;;;10.65;4.40;;;12.70;99.90;;;;;;5292727;28;20024;-76
2021/12/28 00:04:25;;;;;;;13.38;4.60;;;12.60;99.90;;;;;;5292696;28;20041;-77
2021/12/28 00:06:56;;;;;;;11.75;4.40;;;12.60;99.90;;;;;;5292508;28;20019;-77
2021/12/28 00:09:27;;;;;;;14.27;4.97;;;12.60;99.90;;;;;;5292589;28;20420;-75
2021/12/28 00:11:58;;;;;;;14.50;4.88;;;12.70;99.90;;;;;;5292616;28;20046;-77
2021/12/28 00:14:37;;;;;;;9.90;4.60;;;12.70;99.90;;;;;;5292167;28;20032;-77
2021/12/28 00:19:57;;;;;;;9.63;4.32;;;13.00;99.90;;;;;;5292441;28;20016;-76
2021/12/28 00:22:28;;;;;;;7.55;3.67;;;12.90;99.90;;;;;;5292284;28;20107;-76
2021/12/28 00:24:58;;;;;;;9.95;4.10;;;12.80;99.90;;;;;;5292324;28;20012;-77
2021/12/28 00:27:29;;;;;;;11.80;4.28;;;12.90;99.90;;;;;;5292380;28;20067;-77
2021/12/28 00:30:01;;;;;;;12.20;4.57;;;12.80;99.90;;;;;;5292279;28;20450;-76
2021/12/28 00:32:32;;;;;;;9.23;3.97;;;12.70;99.90;;;;;;5291940;28;20032;-77
2021/12/28 00:35:04;;;;;;;8.60;3.78;;;12.90;99.90;;;;;;5291877;28;20471;-76
2021/12/28 00:37:35;;;;;;;13.45;5.18;;;12.80;99.90;;;;;;5291945;28;20488;-76
2021/12/28 00:40:06;;;;;;;14.68;4.88;;;12.70;99.90;;;;;;5291942;28;20102;-76
2021/12/28 00:42:37;;;;;;;12.02;4.63;;;12.80;99.90;;;;;;5290633;28;20035;-74
2021/12/28 00:45:08;;;;;;;11.18;4.13;;;13.00;99.90;;;;;;5290082;28;20044;-75
2021/12/28 00:47:40;;;;;;;9.85;4.22;;;12.80;99.90;;;;;;5291833;28;20020;-75
2021/12/28 00:50:13;;;;;;;10.70;4.30;;;12.90;99.90;;;;;;5291815;28;20043;-77
2021/12/28 00:52:44;;;;;;;9.88;4.53;;;12.90;99.90;;;;;;5291754;28;20051;-77
2021/12/28 00:55:17;;;;;;;11.32;4.30;;;12.90;99.90;;;;;;5290199;28;20066;-77
2021/12/28 00:57:48;;;;;;;7.35;4.00;;;12.90;99.90;;;;;;5291473;28;20374;-76
2021/12/28 01:00:22;;;;;;;11.23;4.22;;;13.10;99.90;;;;;;5291551;28;20012;-75
2021/12/28 01:02:54;;;;;;;12.30;4.47;;;12.90;99.90;;;;;;5291425;28;20031;-75
2021/12/28 01:05:26;;;;;;;12.68;4.50;;;13.10;99.90;;;;;;5291459;28;20016;-76
2021/12/28 01:07:57;;;;;;;8.85;4.15;;;13.00;99.90;;;;;;5291442;28;20381;-77
2021/12/28 01:10:33;;;;;;;14.65;4.63;;;12.90;99.90;;;;;;5291309;28;20020;-74
2021/12/28 01:13:04;;;;;;;16.13;4.50;;;13.00;99.90;;;;;;5291318;28;20079;-76
2021/12/28 01:15:35;;;;;;;10.38;4.32;;;13.00;99.90;;;;;;5290780;28;20051;-76
2021/12/28 01:18:06;;;;;;;8.18;4.20;;;12.90;99.90;;;;;;5291201;28;20027;-76
2021/12/28 01:20:37;;;;;;;12.07;4.20;;;13.00;99.90;;;;;;5291187;28;20395;-77
2021/12/28 01:23:08;;;;;;;9.88;4.20;;;13.00;99.90;;;;;;5289882;28;20024;-75
2021/12/28 01:25:40;;;;;;;13.77;4.38;;;13.00;99.90;;;;;;5290947;28;20024;-75
2021/12/28 01:28:11;;;;;;;9.93;4.60;;;13.00;99.90;;;;;;5291061;28;20016;-77
2021/12/28 01:30:42;;;;;;;12.18;4.43;;;13.00;99.90;;;;;;5291087;28;20027;-77
2021/12/28 01:33:13;;;;;;;10.82;4.35;;;13.00;99.90;;;;;;5290844;28;20020;-75
2021/12/28 01:35:44;;;;;;;15.80;4.60;;;13.00;99.90;;;;;;5290508;28;20462;-77
2021/12/28 01:38:15;;;;;;;11.32;5.03;;;13.00;99.90;;;;;;5290753;28;20098;-77
2021/12/28 01:40:46;;;;;;;15.70;4.82;;;12.80;99.90;;;;;;5290662;28;20104;-76
2021/12/28 01:43:22;;;;;;;13.50;4.43;;;12.90;99.90;;;;;;5290314;28;20022;-76
2021/12/28 01:45:56;;;;;;;12.25;4.38;;;12.90;99.90;;;;;;5289993;28;20059;-77
2021/12/28 01:48:41;;;;;;;10.88;4.45;;;12.80;99.90;;;;;;5290598;28;20019;-77
2021/12/28 01:51:15;;;;;;;8.82;4.32;;;12.90;99.90;;;;;;5290554;28;20077;-76
2021/12/28 01:53:47;;;;;;;12.52;4.60;;;13.00;99.90;;;;;;5290516;28;20101;-75
2021/12/28 01:56:24;;;;;;;11.88;4.60;;;12.80;99.90;;;;;;5290226;28;20050;-76
2021/12/28 01:58:56;;;;;;;11.90;4.45;;;12.90;99.90;;;;;;5290370;28;20066;-75
2021/12/28 02:01:27;;;;;;;12.80;5.03;;;13.00;99.90;;;;;;5290326;28;20114;-76
2021/12/28 02:06:38;;;;;;;12.40;4.88;;;13.00;99.90;;;;;;5574647;22;20503;-73
2021/12/28 02:09:10;;;;;;;13.90;4.78;;;13.10;99.90;;;;;;5248415;28;20036;-74
2021/12/28 02:11:41;;;;;;;12.02;4.28;;;13.10;99.90;;;;;;5248291;28;20383;-74
2021/12/28 02:14:12;;;;;;;14.57;4.43;;;13.10;99.90;;;;;;5247804;28;20033;-74
2021/12/28 02:16:44;;;;;;;7.63;4.40;;;13.10;99.90;;;;;;5248088;28;20467;-75
2021/12/28 02:19:15;;;;;;;10.25;4.60;;;13.00;99.90;;;;;;5230134;28;20016;-74
2021/12/28 02:21:46;;;;;;;8.43;4.50;;;13.00;99.90;;;;;;5247977;28;20028;-74
2021/12/28 02:24:17;;;;;;;13.82;5.32;;;13.10;99.90;;;;;;5247946;28;20020;-74
2021/12/28 02:26:49;;;;;;;10.35;4.78;;;13.00;99.90;;;;;;5247907;28;20025;-73
2021/12/28 02:29:20;;;;;;;12.05;4.35;;;13.10;99.90;;;;;;5248037;28;20020;-72
2021/12/28 02:31:55;;;;;;;14.30;4.70;;;13.10;99.90;;;;;;5247944;28;20529;-74
2021/12/28 02:34:26;;;;;;;11.07;5.10;;;13.10;99.90;;;;;;5247844;28;20020;-75
2021/12/28 02:36:57;;;;;;;9.68;4.63;;;13.10;99.90;;;;;;5247770;28;20039;-75
2021/12/28 02:39:28;;;;;;;10.45;5.00;;;12.90;99.90;;;;;;5247932;28;20112;-74
2021/12/28 02:41:59;;;;;;;18.30;5.57;;;13.10;99.90;;;;;;5247982;28;20046;-75
2021/12/28 02:44:29;;;;;;;12.05;5.38;;;13.10;99.90;;;;;;5247875;28;20047;-74
2021/12/28 02:47:00;;;;;;;12.45;5.38;;;13.10;99.90;;;;;;5229749;28;20021;-74
2021/12/28 02:49:31;;;;;;;13.60;5.28;;;13.00;99.90;;;;;;5247824;28;20063;-74
2021/12/28 02:52:02;;;;;;;14.73;5.53;;;12.90;99.90;;;;;;5247706;28;20021;-73
2021/12/28 02:54:33;;;;;;;10.68;5.25;;;12.80;99.90;;;;;;5229662;28;20472;-75
2021/12/28 02:57:05;;;;;;;15.30;5.80;;;12.80;99.90;;;;;;5250280;28;20025;-74
2021/12/28 02:59:45;;;;;;;11.25;4.95;;;12.90;99.90;;;;;;5251917;28;20081;-74
2021/12/28 03:02:17;;;;;;;;;;;12.90;99.90;;;;;;5252392;28;20499;-74
2021/12/28 03:04:47;;;;;;;13.52;5.07;;;12.70;99.90;;;;;;5251617;28;19904;-73
2021/12/28 03:07:18;;;;;;;14.48;4.78;;;12.70;99.90;;;;;;5251346;28;20110;-74
2021/12/28 03:09:49;;;;;;;13.70;5.30;;;12.70;99.90;;;;;;5233703;28;20021;-74
2021/12/28 03:12:20;;;;;;;17.35;5.88;;;12.70;99.90;;;;;;5233645;28;20081;-74
2021/12/28 03:14:51;;;;;;;16.45;4.93;;;12.70;99.90;;;;;;5233523;28;20033;-74
2021/12/28 03:17:22;;;;;;;12.40;5.30;;;12.60;99.90;;;;;;5251546;28;20456;-74
2021/12/28 03:19:53;;;;;;;8.77;4.90;;;12.70;99.90;;;;;;5251445;28;20055;-72
2021/12/28 03:22:24;;;;;;;14.65;5.30;;;12.80;99.90;;;;;;5251343;28;20029;-74
2021/12/28 03:24:54;;;;;;;9.52;5.18;;;12.80;99.90;;;;;;5251302;28;20021;-74
2021/12/28 03:27:25;;;;;;;11.63;4.95;;;12.70;99.90;;;;;;5251182;28;20035;-74
2021/12/28 03:29:56;;;;;;;12.48;4.63;;;12.70;99.90;;;;;;5251282;28;20028;-74
2021/12/28 03:32:27;;;;;;;10.75;5.15;;;12.70;99.90;;;;;;5251309;28;20027;-75
2021/12/28 03:34:58;;;;;;;14.25;5.20;;;12.70;99.90;;;;;;5250848;28;20068;-75
2021/12/28 03:37:33;;;;;;;13.05;5.15;;;12.70;99.90;;;;;;5251146;28;20078;-73
2021/12/28 03:40:08;;;;;;;9.80;5.07;;;12.70;99.90;;;;;;5251214;28;20060;-74
2021/12/28 03:42:40;;;;;;;13.32;5.95;;;12.70;99.90;;;;;;5251043;28;20114;-74
2021/12/28 03:45:12;;;;;;;10.55;5.15;;;12.70;99.90;;;;;;5250800;28;20021;-74
2021/12/28 03:47:42;;;;;;;16.38;5.30;;;12.60;99.90;;;;;;5250889;28;20122;-74
2021/12/28 03:50:14;;;;;;;13.63;5.60;;;12.70;99.90;;;;;;5250869;28;20025;-74
2021/12/28 03:52:46;;;;;;;12.38;5.43;;;12.70;99.90;;;;;;5250863;28;20016;-74
2021/12/28 03:55:17;;;;;;;15.15;5.72;;;12.70;99.90;;;;;;5250730;28;20382;-75
2021/12/28 03:57:50;;;;;;;15.27;5.68;;;12.60;99.90;;;;;;5250819;28;20072;-74
2021/12/28 04:00:23;;;;;;;10.32;5.00;;;12.60;99.90;;;;;;5250841;28;20376;-74
2021/12/28 04:02:54;;;;;;;14.15;5.13;;;12.60;99.90;;;;;;5250722;28;20052;-74
2021/12/28 04:05:25;;;;;;;10.60;4.13;;;12.70;99.90;;;;;;5250106;28;20494;-74
2021/12/28 04:07:56;;;;;;;10.82;5.00;;;12.60;99.90;;;;;;5249944;28;20076;-74
2021/12/28 04:10:48;;;;;;;9.13;4.60;;;12.60;99.90;;;;;;5250506;28;20037;-75
2021/12/28 04:13:21;;;;;;;14.18;5.13;;;12.60;99.90;;;;;;5250456;28;20039;-74
2021/12/28 04:15:52;;;;;;;12.25;4.90;;;12.60;99.90;;;;;;5250196;28;20037;-75
2021/12/28 04:18:23;;;;;;;12.00;5.18;;;12.70;99.90;;;;;;5250401;28;20070;-73
2021/12/28 04:20:54;;;;;;;13.05;4.20;;;12.60;99.90;;;;;;5250287;28;20029;-74
2021/12/28 04:23:24;;;;;;;11.10;4.93;;;12.60;99.90;;;;;;5250270;28;20066;-72
2021/12/28 04:25:55;;;;;;;9.52;5.18;;;12.50;99.90;;;;;;5250038;28;20031;-74
2021/12/28 04:28:26;;;;;;;15.07;4.90;;;12.60;99.90;;;;;;5250170;28;20425;-74
2021/12/28 04:30:57;;;;;;;11.15;5.05;;;12.60;99.90;;;;;;5250176;28;20107;-74
2021/12/28 04:33:28;;;;;;;15.05;5.35;;;12.60;99.90;;;;;;5250089;28;20050;-74
2021/12/28 04:35:59;;;;;;;12.73;4.65;;;12.50;99.90;;;;;;5231843;28;20544;-74
2021/12/28 04:38:30;;;;;;;10.50;4.70;;;12.60;99.90;;;;;;5249949;28;20028;-73
2021/12/28 04:41:01;;;;;;;13.95;5.53;;;12.60;99.90;;;;;;5250012;28;20032;-73
2021/12/28 04:43:32;;;;;;;11.82;5.32;;;12.50;99.90;;;;;;5249887;28;20044;-74
2021/12/28 04:46:04;;;;;;;9.77;4.68;;;12.50;99.90;;;;;;5249646;28;20051;-74
2021/12/28 04:48:35;;;;;;;12.30;4.60;;;12.40;99.90;;;;;;5249757;28;20025;-74
2021/12/28 04:51:06;;;;;;;13.50;5.10;;;12.50;99.90;;;;;;5249846;28;20024;-73
2021/12/28 04:53:37;;;;;;;12.40;5.50;;;12.50;99.90;;;;;;5249734;28;20028;-74
2021/12/28 04:56:08;;;;;;;13.57;5.78;;;12.50;99.90;;;;;;5249388;28;20044;-73
2021/12/28 04:58:39;;;;;;;12.88;5.13;;;12.50;99.90;;;;;;5249582;28;20028;-74
2021/12/28 05:01:09;;;;;;;11.50;5.60;;;12.50;99.90;;;;;;5249533;28;20031;-73
2021/12/28 05:03:40;;;;;;;17.63;5.47;;;12.40;99.90;;;;;;5249470;28;20104;-74
2021/12/28 05:06:11;;;;;;;12.50;5.43;;;12.50;99.90;;;;;;5248855;28;20052;-74
2021/12/28 05:08:42;;;;;;;11.43;5.07;;;12.40;99.90;;;;;;5249344;28;20016;-74
2021/12/28 05:11:14;;;;;;;11.20;4.93;;;12.40;99.90;;;;;;5249312;28;20032;-75
2021/12/28 05:13:45;;;;;;;9.98;5.20;;;12.40;99.90;;;;;;5249175;28;20035;-74
2021/12/28 05:16:16;;;;;;;10.82;4.93;;;12.30;99.90;;;;;;5248980;28;20036;-74
2021/12/28 05:18:47;;;;;;;11.85;5.30;;;12.20;99.90;;;;;;5248265;28;20024;-74
2021/12/28 05:21:18;;;;;;;12.40;5.15;;;12.10;99.90;;;;;;5248897;28;20085;-75
2021/12/28 05:23:49;;;;;;;13.70;5.80;;;12.10;99.90;;;;;;5249007;28;20028;-75
2021/12/28 05:26:19;;;;;;;12.90;5.63;;;12.00;99.90;;;;;;5248758;28;20020;-75
2021/12/28 05:28:50;;;;;;;13.05;6.28;;;11.90;99.90;;;;;;5248850;28;20032;-75
2021/12/28 05:31:21;;;;;;;13.13;6.38;;;11.80;99.90;;;;;;5248886;28;20134;-74
2021/12/28 05:33:53;;;;;;;13.70;6.25;;;11.90;99.90;;;;;;5248895;28;20039;-75
2021/12/28 05:36:24;;;;;;;11.65;6.10;;;11.70;99.90;;;;;;5248536;28;20083;-74
2021/12/28 05:38:55;;;;;;;14.27;7.00;;;11.60;99.90;;;;;;5230868;28;20044;-74
2021/12/28 05:41:26;;;;;;;13.35;6.35;;;11.50;99.90;;;;;;5230582;28;20058;-75
2021/12/28 05:43:57;;;;;;;14.38;6.90;;;11.40;99.90;;;;;;5248673;28;20063;-75
2021/12/28 05:46:27;;;;;;;10.45;6.57;;;11.30;99.90;;;;;;5248456;28;20028;-75
2021/12/28 05:48:58;;;;;;;17.83;6.55;;;11.20;99.90;;;;;;5248571;28;20028;-74
2021/12/28 05:51:29;;;;;;;10.20;6.57;;;11.60;99.90;;;;;;5248550;28;20020;-75
2021/12/28 05:54:00;;;;;;;15.95;6.13;;;11.70;99.90;;;;;;5248432;28;20039;-76
2021/12/28 05:56:31;;;;;;;15.35;7.00;;;11.90;99.90;;;;;;5248485;28;20033;-75
2021/12/28 05:59:01;;;;;;;15.98;6.10;;;11.60;99.90;;;;;;5248426;28;20403;-75
2021/12/28 06:01:32;;;;;;;14.18;5.85;;;11.60;99.90;;;;;;5248348;28;20082;-76
2021/12/28 06:04:04;;;;;;;20.17;7.07;;;11.60;99.90;;;;;;5248292;28;20039;-76
2021/12/28 06:06:35;;;;;;;12.82;6.47;;;11.50;99.90;;;;;;5247817;28;20055;-76
2021/12/28 06:09:06;;;;;;;15.85;7.40;;;11.30;99.90;;;;;;5248343;28;20028;-76
2021/12/28 06:11:37;;;;;;;15.05;6.13;;;11.40;99.90;;;;;;5248294;28;20028;-76
2021/12/28 06:14:07;;;;;;;13.93;6.00;;;11.30;99.90;;;;;;5248149;28;20017;-76
2021/12/28 06:16:39;;;;;;;13.80;6.13;;;11.60;99.90;;;;;;5248207;28;20036;-75
2021/12/28 06:19:09;;;;;;;17.30;6.50;;;11.70;99.90;;;;;;5248106;28;20116;-75
2021/12/28 06:21:40;;;;;;;15.38;6.25;;;11.80;99.90;;;;;;5248144;28;20524;-76
2021/12/28 06:24:11;;;;;;;12.98;6.70;;;11.80;99.90;;;;;;5248029;28;20058;-76
2021/12/28 06:26:42;;;;;;;17.83;7.28;;;11.80;99.90;;;;;;5247959;28;20060;-76
2021/12/28 06:29:15;;;;;;;17.45;7.00;;;11.90;99.90;;;;;;5248056;28;20033;-76
2021/12/28 06:31:46;;;;;;;14.80;6.38;;;12.00;99.90;;;;;;5247849;28;20024;-75
2021/12/28 06:34:18;;;;;;;21.00;6.82;;;12.00;99.90;;;;;;5247929;28;20027;-76
2021/12/28 06:36:49;;;;;;;15.88;6.15;;;12.00;99.90;;;;;;5247813;28;20130;-76
2021/12/28 06:39:20;;;;;;;11.27;6.30;;;11.90;99.90;;;;;;5248023;28;20048;-76
2021/12/28 06:41:51;;;;;;;18.15;6.00;;;11.90;99.90;;;;;;5247957;28;20035;-76
2021/12/28 06:44:22;;;;;;;23.60;6.40;;;11.80;99.90;;;;;;5247768;28;20032;-76
2021/12/28 06:46:53;;;;;;;12.27;6.03;;;11.80;99.90;;;;;;5247853;28;20021;-76
2021/12/28 06:49:24;;;;;;;12.93;7.30;;;11.70;99.90;;;;;;5247913;28;20035;-76
2021/12/28 06:51:54;;;;;;;13.65;6.57;;;11.60;99.90;;;;;;5247824;28;20024;-76
2021/12/28 06:54:25;;;;;;;13.18;6.18;;;11.50;99.90;;;;;;5247580;28;20063;-76
2021/12/28 06:56:57;;;;;;;15.88;7.20;;;11.50;99.90;;;;;;5247778;28;20432;-76
2021/12/28 06:59:27;;;;;;;19.50;7.00;;;11.40;99.90;;;;;;5247749;28;20530;-76
2021/12/28 07:02:00;;;;;;;15.88;8.40;;;11.40;99.90;;;;;;5247733;28;20036;-76
2021/12/28 07:04:31;;;;;;;20.23;8.25;;;11.40;99.90;;;;;;5247614;28;20041;-76
2021/12/28 07:07:02;;;;;;;19.65;8.77;;;11.50;99.90;;;;;;5247162;28;20061;-76
2021/12/28 07:09:33;;;;;;;15.85;8.18;;;11.50;99.90;;;;;;5229654;28;20064;-76
2021/12/28 07:12:04;;;;;;;71.82;33.65;;;11.40;99.90;;;;;;5247564;28;20048;-76
2021/12/28 07:14:36;;;;;;;67.00;28.35;;;11.50;99.90;;;;;;5247416;28;20036;-76
2021/12/28 07:17:06;;;;;;;31.77;14.93;;;11.40;99.90;;;;;;5247559;28;20071;-76
2021/12/28 07:19:37;;;;;;;71.53;35.47;;;11.40;99.90;;;;;;5247563;28;20056;-76
2021/12/28 07:22:08;;;;;;;16.40;8.55;;;11.70;99.90;;;;;;5247446;28;20063;-76
2021/12/28 07:24:39;;;;;;;32.70;16.80;;;11.60;99.90;;;;;;5247367;28;20387;-76
2021/12/28 07:27:10;;;;;;;16.05;7.75;;;11.90;99.90;;;;;;5229309;28;20082;-76
2021/12/28 07:29:41;;;;;;;16.23;7.47;;;11.90;99.90;;;;;;5247449;28;20017;-76
2021/12/28 07:32:11;;;;;;;17.10;7.72;;;12.10;99.90;;;;;;5247389;28;20025;-76
2021/12/28 07:34:42;;;;;;;16.45;6.72;;;12.00;99.90;;;;;;5247084;28;20060;-76
2021/12/28 07:37:13;;;;;;;12.52;7.72;;;12.00;99.90;;;;;;5247375;28;20013;-76
2021/12/28 07:39:44;;;;;;;13.45;6.85;;;11.90;99.90;;;;;;5247423;28;20063;-76
2021/12/28 07:42:15;;;;;;;14.55;7.50;;;12.10;99.90;;;;;;5248440;28;20099;-76
2021/12/28 07:44:47;;;;;;;13.20;6.80;;;12.10;99.90;;;;;;5251030;28;20032;-76
2021/12/28 07:47:17;;;;;;;19.45;7.90;;;12.30;99.90;;;;;;5250919;28;20017;-76
2021/12/28 07:49:48;;;;;;;13.15;6.50;;;12.50;99.90;;;;;;5250861;28;20049;-76
2021/12/28 07:52:19;;;;;;;18.27;6.85;;;12.80;99.90;;;;;;5250871;28;20021;-76
2021/12/28 07:54:50;;;;;;;13.90;6.22;;;13.20;99.90;;;;;;5250677;28;20379;-76
2021/12/28 07:57:21;;;;;;;12.40;5.88;;;13.30;99.90;;;;;;5250780;28;20089;-76
2021/12/28 07:59:51;;;;;;;16.25;5.50;;;13.40;99.90;;;;;;5250744;28;20016;-76
2021/12/28 08:02:22;;;;;;;11.05;5.80;;;13.50;99.90;;;;;;5250692;28;20048;-76
2021/12/28 08:04:53;;;;;;;13.77;5.63;;;13.40;99.90;;;;;;5250526;28;20484;-76
2021/12/28 08:07:24;;;;;;;14.13;6.03;;;13.30;99.90;;;;;;5250294;28;20505;-76
2021/12/28 08:09:55;;;;;;;11.70;6.30;;;13.10;99.90;;;;;;5250541;28;20067;-75
2021/12/28 08:12:26;;;;;;;15.20;6.82;;;12.90;99.90;;;;;;5250538;28;20059;-76
2021/12/28 08:14:57;;;;;;;12.75;6.10;;;12.90;99.90;;;;;;5250348;28;20028;-76
2021/12/28 08:17:29;;;;;;;12.00;6.78;;;12.80;99.90;;;;;;5250431;28;20074;-76
2021/12/28 08:20:00;;;;;;;16.00;6.43;;;12.60;99.90;;;;;;5250376;28;20422;-76
2021/12/28 08:22:31;;;;;;;17.35;7.38;;;12.60;99.90;;;;;;5250347;28;20074;-76
2021/12/28 08:25:03;;;;;;;16.20;7.13;;;12.50;99.90;;;;;;5250341;28;20455;-76
2021/12/28 08:27:34;;;;;;;23.65;7.95;;;12.50;99.90;;;;;;5250193;28;20061;-75
2021/12/28 08:30:07;;;;;;;22.17;7.05;;;12.60;99.90;;;;;;5250221;28;20047;-76
2021/12/28 08:32:38;;;;;;;13.70;7.40;;;12.70;99.90;;;;;;5250166;28;20442;-76
2021/12/28 08:35:10;;;;;;;21.15;7.38;;;12.60;99.90;;;;;;5231859;28;20045;-76
2021/12/28 08:37:41;;;;;;;17.00;7.82;;;12.60;99.90;;;;;;5249961;28;20021;-76
2021/12/28 08:40:13;;;;;;;17.67;7.95;;;12.80;99.90;;;;;;5250005;28;20031;-76
2021/12/28 08:42:44;;;;;;;20.92;10.73;;;12.80;99.90;;;;;;5249889;28;20020;-76
2021/12/28 08:45:16;;;;;;;17.48;8.45;;;12.80;99.90;;;;;;5249845;28;20036;-75
2021/12/28 08:47:49;;;;;;;13.52;7.68;;;12.90;99.90;;;;;;5249767;28;20024;-76
2021/12/28 08:50:20;;;;;;;14.85;5.75;;;13.00;99.90;;;;;;5249890;28;20089;-76
2021/12/28 08:52:51;;;;;;;8.90;5.32;;;12.90;99.90;;;;;;5249647;28;20024;-74
2021/12/28 08:55:23;;;;;;;12.75;6.50;;;12.80;99.90;;;;;;5249528;28;20044;-76
2021/12/28 08:57:54;;;;;;;12.93;5.55;;;12.80;99.90;;;;;;5249567;28;20049;-76
2021/12/28 09:00:28;;;;;;;12.82;6.18;;;12.80;99.90;;;;;;5249594;28;20025;-76
2021/12/28 09:03:00;;;;;;;11.93;5.40;;;12.70;99.90;;;;;;5249488;28;20151;-76
2021/12/28 09:05:31;;;;;;;13.18;5.78;;;12.80;99.90;;;;;;5249092;28;20047;-76
2021/12/28 09:08:06;;;;;;;16.95;6.20;;;12.70;99.90;;;;;;5249134;28;20396;-76
2021/12/28 09:10:37;;;;;;;16.00;5.78;;;12.80;99.90;;;;;;5249393;28;20062;-76
2021/12/28 09:13:09;;;;;;;12.70;6.10;;;12.80;99.90;;;;;;5249254;28;20012;-76
2021/12/28 09:15:41;;;;;;;13.27;5.88;;;12.80;99.90;;;;;;5249104;28;20021;-76
2021/12/28 09:18:12;;;;;;;10.50;6.50;;;12.80;99.90;;;;;;5249262;28;20032;-74
2021/12/28 09:20:45;;;;;;;12.73;4.95;;;12.70;99.90;;;;;;5249035;28;20024;-76
2021/12/28 09:23:15;;;;;;;12.10;5.88;;;12.80;99.90;;;;;;5249060;28;20099;-76
2021/12/28 09:25:46;;;;;;;11.68;6.13;;;12.70;99.90;;;;;;5248811;28;20543;-76
2021/12/28 09:28:17;;;;;;;11.27;5.75;;;13.00;99.90;;;;;;5248953;28;20082;-76
2021/12/28 09:30:48;;;;;;;12.30;6.03;;;13.10;99.90;;;;;;5248984;28;20107;-76
2021/12/28 09:33:19;;;;;;;12.80;5.75;;;13.40;99.90;;;;;;5248903;28;20029;-76
2021/12/28 09:35:52;;;;;;;10.48;4.78;;;13.80;99.90;;;;;;5248563;28;20069;-76
2021/12/28 09:38:23;;;;;;;14.45;5.28;;;13.50;99.90;;;;;;5248817;28;20036;-76
2021/12/28 09:40:54;;;;;;;14.73;5.47;;;13.40;99.90;;;;;;5248800;28;20032;-76
2021/12/28 09:43:25;;;;;;;13.18;5.93;;;13.20;99.90;;;;;;5248731;28;20061;-76
2021/12/28 09:45:55;;;;;;;12.52;5.78;;;13.30;99.90;;;;;;5248591;28;20020;-76
2021/12/28 09:48:26;;;;;;;11.43;5.45;;;13.60;99.90;;;;;;5248623;28;20039;-76
2021/12/28 09:50:58;;;;;;;13.80;5.50;;;13.60;99.90;;;;;;5248633;28;20028;-76
2021/12/28 09:53:29;;;;;;;11.45;5.20;;;13.50;99.90;;;;;;5248461;28;20471;-76
2021/12/28 09:56:00;;;;;;;12.27;5.28;;;13.60;99.90;;;;;;5248460;28;20051;-75
2021/12/28 09:58:34;;;;;;;10.35;4.85;;;13.80;99.90;;;;;;5248420;28;20020;-75
2021/12/28 10:01:08;;;;;;;11.82;5.25;;;13.90;99.90;;;;;;5248381;28;20131;-76
2021/12/28 10:03:38;;;;;;;8.32;4.63;;;14.00;99.90;;;;;;5248276;28;20028;-75
2021/12/28 10:06:18;;;;;;;10.15;4.55;;;14.00;99.90;;;;;;5247325;28;20392;-76
2021/12/28 10:09:22;;;;;;;9.15;3.78;;;14.00;99.90;;;;;;5248367;28;20418;-75
2021/12/28 10:11:55;;;;;;;10.25;4.82;;;14.10;99.90;;;;;;5247877;28;20047;-76
2021/12/28 10:14:28;;;;;;;10.40;4.72;;;14.30;99.90;;;;;;5248070;28;20028;-76
2021/12/28 10:17:03;;;;;;;11.52;4.88;;;14.30;99.90;;;;;;5248278;28;20433;-76
2021/12/28 10:19:45;;;;;;;12.65;5.55;;;14.40;99.90;;;;;;5248188;28;20414;-76
2021/12/28 10:22:34;;;;;;;11.90;4.75;;;14.40;99.90;;;;;;5248153;28;20612;-76
2021/12/28 10:25:09;;;;;;;12.45;5.13;;;14.10;99.90;;;;;;5248094;28;20079;-76
2021/12/28 10:27:43;;;;;;;12.52;4.40;;;14.20;99.90;;;;;;5230072;28;20035;-76
2021/12/28 10:30:24;;;;;;;9.20;5.50;;;14.40;99.90;;;;;;5248015;28;20545;-76
2021/12/28 10:33:01;;;;;;;12.25;5.00;;;14.20;99.90;;;;;;5248108;28;20357;-76
2021/12/28 10:35:35;;;;;;;10.02;4.90;;;14.30;99.90;;;;;;5247811;28;20094;-76
2021/12/28 10:38:09;;;;;;;11.95;4.93;;;14.30;99.90;;;;;;5248021;28;20035;-76
2021/12/28 10:40:44;;;;;;;13.25;6.38;;;14.30;99.90;;;;;;5247921;28;20013;-77
2021/12/28 10:43:21;;;;;;;11.45;4.65;;;14.30;99.90;;;;;;5247846;28;20127;-76
2021/12/28 10:46:00;;;;;;;10.15;4.28;;;14.30;99.90;;;;;;5247755;28;20032;-76
2021/12/28 10:48:37;;;;;;;14.40;4.88;;;14.30;99.90;;;;;;5247891;28;20352;-76
2021/12/28 10:51:22;;;;;;;10.68;4.60;;;14.30;99.90;;;;;;5247881;28;20035;-77
2021/12/28 10:54:02;;;;;;;10.43;4.78;;;14.30;99.90;;;;;;5230012;28;20017;-76
2021/12/28 10:56:41;;;;;;;13.93;5.15;;;14.40;99.90;;;;;;5229832;28;20613;-77
2021/12/28 10:59:12;;;;;;;11.18;4.85;;;14.40;99.90;;;;;;5247827;28;20033;-75
2021/12/28 11:01:45;;;;;;;12.25;5.93;;;14.40;99.90;;;;;;5247707;28;20091;-77
2021/12/28 11:04:17;;;;;;;21.42;12.38;;;14.50;99.90;;;;;;5247594;28;20460;-77
2021/12/28 11:06:52;;;;;;;18.02;8.32;;;14.60;99.90;;;;;;5247157;28;20044;-76
2021/12/28 11:09:25;;;;;;;12.45;6.10;;;14.60;99.90;;;;;;5247667;28;20037;-76
2021/12/28 11:11:57;;;;;;;14.40;5.35;;;14.70;99.90;;;;;;5247634;28;20013;-76
2021/12/28 11:14:29;;;;;;;17.05;7.95;;;14.80;99.90;;;;;;5247459;28;20082;-77
2021/12/28 11:17:03;;;;;;;32.97;22.38;;;14.90;99.90;;;;;;5248346;28;20029;-77
2021/12/28 11:19:36;;;;;;;9.05;4.22;;;14.90;99.90;;;;;;5251588;28;20051;-77
2021/12/28 11:22:11;;;;;;;11.55;4.75;;;15.00;99.90;;;;;;5251509;28;20086;-77
2021/12/28 11:24:45;;;;;;;10.65;4.68;;;15.10;99.90;;;;;;5251474;28;20107;-77
2021/12/28 11:27:27;;;;;;;11.55;6.03;;;15.20;99.90;;;;;;5251209;28;20082;-76
2021/12/28 11:29:59;;;;;;;13.13;9.02;;;15.10;99.90;;;;;;5251452;28;20025;-77
2021/12/28 11:32:30;;;;;;;6.25;3.33;;;15.20;99.90;;;;;;5251288;28;20472;-77
2021/12/28 11:35:01;;;;;;;11.18;4.50;;;15.20;99.90;;;;;;5250906;28;20039;-77
2021/12/28 11:37:32;;;;;;;7.20;3.33;;;15.20;99.90;;;;;;5251199;28;20115;-77
2021/12/28 11:40:08;;;;;;;10.43;4.10;;;15.30;99.90;;;;;;5233159;28;20023;-77
2021/12/28 11:42:39;;;;;;;8.65;4.15;;;15.40;99.90;;;;;;5251188;28;20021;-77
2021/12/28 11:45:10;;;;;;;8.50;3.25;;;15.50;99.90;;;;;;5251032;28;20078;-77
2021/12/28 11:47:42;;;;;;;7.35;3.63;;;15.40;99.90;;;;;;5250873;28;20093;-76
2021/12/28 11:50:13;;;;;;;10.98;4.28;;;15.40;99.90;;;;;;5250962;28;20013;-75
2021/12/28 11:52:44;;;;;;;8.02;3.83;;;15.40;99.90;;;;;;5250847;28;20460;-78
2021/12/28 11:55:15;;;;;;;9.48;4.80;;;15.40;99.90;;;;;;5250735;28;20031;-77
2021/12/28 11:57:52;;;;;;;9.98;3.53;;;15.30;99.90;;;;;;5250865;28;20459;-77
2021/12/28 12:00:23;;;;;;;8.60;3.85;;;15.40;99.90;;;;;;5250763;28;20036;-77
2021/12/28 12:02:54;;;;;;;10.02;3.40;;;15.40;99.90;;;;;;5250618;28;20029;-77
2021/12/28 12:05:27;;;;;;;9.45;4.25;;;15.40;99.90;;;;;;5250190;28;20036;-77
2021/12/28 12:08:10;;;;;;;11.30;4.40;;;15.40;99.90;;;;;;5250376;28;20487;-77
2021/12/28 12:10:49;;;;;;;9.85;3.35;;;15.40;99.90;;;;;;5250562;28;20476;-78
2021/12/28 12:13:25;;;;;;;6.90;3.80;;;15.40;99.90;;;;;;5232618;28;20025;-76
2021/12/28 12:16:01;;;;;;;11.05;4.05;;;15.40;99.90;;;;;;5250406;28;20033;-77
2021/12/28 12:18:45;;;;;;;15.85;3.75;;;15.40;99.90;;;;;;5250513;28;20110;-77
2021/12/28 12:21:18;;;;;;;6.07;3.58;;;15.40;99.90;;;;;;5250438;28;20017;-77
2021/12/28 12:23:54;;;;;;;7.63;3.60;;;15.40;99.90;;;;;;5250377;28;20016;-77
2021/12/28 12:26:33;;;;;;;7.97;3.63;;;15.40;99.90;;;;;;5250298;28;20032;-77
2021/12/28 12:29:19;;;;;;;10.82;3.55;;;15.30;99.90;;;;;;5249921;28;20028;-77
2021/12/28 12:31:51;;;;;;;9.23;3.55;;;15.40;99.90;;;;;;5250226;28;20126;-77
2021/12/28 12:34:32;;;;;;;9.25;3.85;;;15.40;99.90;;;;;;5250011;28;20008;-77
2021/12/28 12:37:15;;;;;;;8.63;3.38;;;15.40;99.90;;;;;;5250109;28;20037;-77
2021/12/28 12:39:54;;;;;;;11.57;3.85;;;15.30;99.90;;;;;;5250094;28;20020;-77
2021/12/28 12:42:25;;;;;;;9.10;3.90;;;15.30;99.90;;;;;;5249960;28;20032;-77
2021/12/28 12:44:55;;;;;;;11.00;3.53;;;15.30;99.90;;;;;;5249975;28;20526;-77
2021/12/28 12:47:26;;;;;;;9.68;4.00;;;15.40;99.90;;;;;;5249663;28;20029;-77
2021/12/28 12:50:09;;;;;;;8.75;4.15;;;15.50;99.90;;;;;;5249805;28;20024;-77
2021/12/28 12:52:41;;;;;;;8.30;4.07;;;15.40;99.90;;;;;;5249656;28;20071;-77
2021/12/28 12:55:14;;;;;;;9.80;4.10;;;15.40;99.90;;;;;;5249555;28;20494;-77
2021/12/28 12:57:45;;;;;;;13.15;3.90;;;15.40;99.90;;;;;;5231711;28;20055;-77
2021/12/28 13:00:19;;;;;;;13.15;3.85;;;15.40;99.90;;;;;;5249629;28;20107;-77
2021/12/28 13:03:00;;;;;;;10.63;3.92;;;15.40;99.90;;;;;;5249512;28;20021;-77
2021/12/28 13:05:45;;;;;;;8.18;3.83;;;15.40;99.90;;;;;;5249351;28;20028;-77
2021/12/28 13:08:16;;;;;;;11.02;4.50;;;15.30;99.90;;;;;;5231434;28;20046;-78
2021/12/28 13:10:46;;;;;;;10.43;3.72;;;15.30;99.90;;;;;;5249301;28;20021;-77